Latest Weather Observations for Double Island Point

IDQ60801

Issued at 8:05 pm EST Thursday 2 October 2014 (issued every 30 minutes, with the page automatically refreshed every 10 minutes)

About weather observations | Map of weather stations | Latest weather observations for QLD | Other Formats
Station Details ID: 040068 Name: DOUBLE ISLAND POINT LIGHTHOUSE Lat: -25.93 Lon: 153.19 Height: 95.64 m
Data from the previous 72 hours. | See also: Recent months at Double Island Point
Date/Time
EST
Temp
°C
App
Temp
°C
Dew
Point
Rel
Hum
%
Delta-T
°C
Wind Press
QNH
hPa
Press
MSL
hPa
Rain
since 9 am
mm
Dir
 
Spd
km/h
Gust
km/h
Spd
kts
Gust
kts
02/08:00pm 18.5 13.9 12.3 67 3.4 E 28 32 15 17 1020.8 1020.5 0.0
02/07:30pm 18.6 13.9 11.9 65 3.7 E 28 33 15 18 1020.6 1020.3 0.0
02/07:00pm 18.5 13.3 11.6 64 3.8 E 30 35 16 19 1020.5 1020.2 0.0
02/06:30pm 18.7 14.2 12.5 67 3.5 E 28 33 15 18 1020.4 1020.1 0.0
02/06:00pm 18.7 13.4 12.5 67 3.5 E 32 37 17 20 1020.1 1019.8 0.0
02/05:30pm 18.9 13.9 12.2 65 3.7 E 30 35 16 19 1019.9 1019.6 0.0
02/05:00pm 19.4 14.1 12.4 64 3.9 ESE 32 37 17 20 1019.8 1019.5 0.0
02/04:30pm 19.7 14.2 11.7 60 4.4 ESE 32 37 17 20 1019.9 1019.6 0.0
02/04:00pm 19.7 14.1 12.0 61 4.3 SE 33 37 18 20 1019.6 1019.3 0.0
02/03:30pm 20.1 14.7 12.8 63 4.1 SE 33 39 18 21 1019.4 1019.0 0.0
02/03:00pm 19.8 14.7 13.0 65 3.9 SE 32 37 17 20 1019.6 1019.3 0.0
02/02:30pm 19.6 13.9 11.9 61 4.3 SE 33 39 18 21 1019.6 1019.3 0.0
02/02:00pm 19.9 14.0 12.4 62 4.2 SE 35 41 19 22 1019.7 1019.4 0.0
02/01:30pm 20.0 14.2 12.7 63 4.1 SE 35 41 19 22 1019.8 1019.5 0.0
02/01:00pm 20.1 14.1 12.1 60 4.5 SE 35 41 19 22 1020.0 1019.7 0.0
02/12:30pm 20.3 14.8 12.3 60 4.5 SE 33 41 18 22 1020.2 1019.9 0.0
02/12:00pm 20.9 14.6 12.3 58 4.8 SE 37 43 20 23 1020.4 1020.1 0.0
02/11:30am 21.1 14.5 12.5 58 4.9 SE 39 46 21 25 1020.6 1020.3 0.0
02/11:00am 20.6 14.3 12.3 59 4.7 SE 37 44 20 24 1021.0 1020.7 0.0
02/10:30am 20.3 13.8 12.8 62 4.3 SE 39 44 21 24 1021.3 1021.0 0.0
02/10:00am 20.3 13.8 13.0 63 4.1 SE 39 46 21 25 1021.3 1021.0 0.0
02/09:30am 19.9 12.6 12.7 63 4.1 SE 43 50 23 27 1021.3 1021.0 0.0
02/09:00am 20.3 13.2 13.3 64 4.0 ESE 43 50 23 27 1021.4 1021.1 0.0
02/08:30am 20.0 12.3 13.2 65 3.9 ESE 46 54 25 29 1021.1 1020.8 0.0
02/08:00am 19.8 12.3 12.6 63 4.1 ESE 44 54 24 29 1020.9 1020.6 0.0
02/07:30am 19.6 12.2 13.1 66 3.7 ESE 44 56 24 30 1020.4 1020.1 0.0
02/07:00am 19.4 10.6 13.3 68 3.5 ESE 52 61 28 33 1020.1 1019.8 0.0
02/06:30am 19.5 11.8 14.5 73 2.9 ESE 48 57 26 31 1019.8 1019.5 0.0
02/06:00am 19.4 10.8 14.0 71 3.1 ESE 52 59 28 32 1019.4 1019.0 0.0
02/05:30am 19.4 10.9 14.4 73 2.9 ESE 52 61 28 33 1019.1 1018.7 0.0
02/05:00am 19.5 11.4 14.3 72 3.0 ESE 50 61 27 33 1018.6 1018.2 0.0
02/04:30am 19.5 10.2 14.3 72 3.0 ESE 56 65 30 35 1018.0 1017.6 0.0
02/04:00am 19.5 9.8 14.7 74 2.8 SE 59 69 32 37 1017.7 1017.3 0.0
02/03:30am 19.6 9.4 15.3 76 2.5 SE 63 74 34 40 1017.3 1016.9 0.0
02/03:00am 19.5 9.0 15.6 78 2.3 SE 65 74 35 40 1016.9 1016.5 0.0
02/02:30am 19.5 8.3 15.8 79 2.2 SE 69 76 37 41 1016.7 1016.3 0.0
02/02:00am 20.0 8.7 16.0 78 2.4 SE 70 78 38 42 1016.6 1016.2 0.0
02/01:30am 20.1 9.2 16.5 80 2.2 SE 69 80 37 43 1016.7 1016.3 0.0
02/01:00am 20.1 9.0 16.5 80 2.2 SSE 70 83 38 45 1016.6 1016.2 0.0
02/12:30am 20.1 8.0 16.9 82 1.9 SSE 76 85 41 46 1016.2 1015.8 0.0
02/12:00am 20.3 9.1 17.3 83 1.8 SSE 72 91 39 49 1015.9 1015.5 0.0
 
Date/Time
EST
Temp
°C
App
Temp
°C
Dew
Point
Rel
Hum
%
Delta-T
°C
Wind Press
QNH
hPa
Press
MSL
hPa
Rain
since 9 am
mm
Dir
 
Spd
km/h
Gust
km/h
Spd
kts
Gust
kts
01/11:47pm 20.3 9.5 17.3 83 1.8 SSE 70 93 38 50 1015.8 1015.4 0.0
01/11:30pm 20.3 9.8 17.5 84 1.7 SSE 69 85 37 46 1015.8 1015.4 0.0
01/11:17pm 20.4 11.9 17.8 85 1.6 S 59 78 32 42 1016.1 1015.7 0.0
01/11:00pm 20.4 13.7 18.0 86 1.5 S 50 65 27 35 1016.5 1016.1 0.0
01/10:43pm 20.4 17.6 17.4 83 1.8 S 28 54 15 29 1016.9 1016.5 0.0
01/10:30pm 19.8 17.7 15.2 75 2.7 SSW 20 32 11 17 1017.2 1016.8 0.0
01/10:00pm 20.0 17.1 16.0 78 2.4 WSW 26 35 14 19 1016.8 1016.4 0.0
01/09:30pm 20.2 15.6 16.0 77 2.5 WNW 35 46 19 25 1015.2 1014.8 0.0
01/09:00pm 20.5 15.5 15.1 71 3.2 NW 35 43 19 23 1014.7 1014.3 0.0
01/08:30pm 20.4 16.5 15.6 74 2.9 NW 30 35 16 19 1014.6 1014.2 0.0
01/08:00pm 20.4 16.5 15.6 74 2.9 NW 30 35 16 19 1014.5 1014.1 0.0
01/07:30pm 20.5 17.1 15.7 74 2.9 NW 28 33 15 18 1014.8 1014.4 0.0
01/07:00pm 20.5 16.2 15.9 75 2.8 NNW 33 39 18 21 1014.4 1014.0 0.0
01/06:30pm 20.8 19.1 16.2 75 2.8 NNW 20 30 11 16 1013.9 1013.5 0.0
01/06:00pm 21.1 19.1 15.6 71 3.3 NNW 20 32 11 17 1013.8 1013.4 0.0
01/05:30pm 21.8 20.7 15.2 66 3.9 N 15 20 8 11 1013.7 1013.3 0.0
01/05:00pm 22.8 21.8 15.6 64 4.3 N 15 19 8 10 1013.6 1013.2 0.0
01/04:30pm 23.8 23.9 16.6 64 4.4 N 11 15 6 8 1013.6 1013.2 0.0
01/04:00pm 24.5 24.7 16.7 61 4.8 N 11 17 6 9 1013.7 1013.3 0.0
01/03:30pm 24.8 25.0 16.8 61 5.0 N 11 17 6 9 1013.7 1013.3 0.0
01/03:00pm 24.6 24.8 16.8 62 4.8 N 11 19 6 10 1013.8 1013.4 0.0
01/02:30pm 24.6 24.4 16.8 62 4.8 N 13 24 7 13 1014.0 1013.6 0.0
01/02:00pm 24.6 23.7 16.8 62 4.8 N 17 24 9 13 1014.1 1013.7 0.0
01/01:30pm 24.4 23.9 16.9 63 4.6 N 15 32 8 17 1014.6 1014.2 0.0
01/01:00pm 24.8 24.4 16.2 58 5.3 N 13 26 7 14 1015.3 1014.9 0.0
01/12:30pm 25.9 25.7 16.7 57 5.7 N 13 19 7 10 1015.9 1015.5 0.0
01/12:00pm 27.5 28.3 17.4 54 6.4 N 9 13 5 7 1016.7 1016.3 0.0
01/11:30am 26.0 23.4 16.0 54 6.1 NNW 24 28 13 15 1017.5 1017.1 0.0
01/11:00am 24.7 21.0 15.1 55 5.8 NNW 28 33 15 18 1017.6 1017.2 0.0
01/10:30am 23.9 19.4 15.4 59 5.1 NNW 33 41 18 22 1017.6 1017.2 0.0
01/10:00am 22.8 17.6 14.6 60 4.9 NNW 35 43 19 23 1018.1 1017.7 0.0
01/09:30am 21.8 16.3 14.7 64 4.2 NNW 37 46 20 25 1018.4 1018.1 0.0
01/09:00am 21.1 16.3 14.5 66 3.9 NNW 33 44 18 24 1018.6 1018.3 0.0
01/08:30am 20.1 15.7 15.1 73 3.0 NW 32 39 17 21 1018.7 1018.4 0.0
01/08:00am 19.3 14.6 14.3 73 2.9 NNW 32 39 17 21 1018.7 1018.4 0.0
01/07:30am 18.9 14.6 14.4 75 2.6 NNW 30 39 16 21 1018.5 1018.2 0.0
01/07:00am 18.8 15.1 14.9 78 2.3 NNW 28 37 15 20 1018.3 1018.0 0.0
01/06:30am 18.1 14.3 14.6 80 2.0 NNW 28 35 15 19 1018.1 1017.8 0.0
01/06:00am 17.9 14.1 14.6 81 1.9 NNW 28 33 15 18 1018.2 1017.9 0.0
01/05:30am 17.4 14.3 14.5 83 1.7 NNW 24 30 13 16 1018.1 1017.8 0.0
01/05:00am 17.8 14.5 14.1 79 2.1 NNW 24 30 13 16 1018.0 1017.7 0.0
01/04:30am 18.1 14.3 13.6 75 2.6 NNW 26 33 14 18 1017.9 1017.6 0.0
01/04:00am 18.2 15.2 13.7 75 2.6 NNW 22 32 12 17 1017.8 1017.5 0.0
01/03:30am 18.3 14.9 13.6 74 2.7 NNW 24 35 13 19 1017.7 1017.4 0.0
01/03:00am 18.5 15.5 13.6 73 2.8 NNW 22 32 12 17 1017.8 1017.5 0.0
01/02:30am 18.7 15.9 13.3 71 3.1 NNW 20 33 11 18 1017.9 1017.6 0.0
01/02:00am 18.7 15.6 13.3 71 3.1 NNW 22 35 12 19 1018.2 1017.9 0.0
01/01:30am 18.8 16.6 13.4 71 3.1 N 17 30 9 16 1018.5 1018.2 0.0
01/01:00am 18.8 16.6 13.2 70 3.2 N 17 26 9 14 1018.9 1018.6 0.0
01/12:30am 18.9 16.1 13.3 70 3.2 NNW 20 33 11 18 1018.9 1018.6 0.0
01/12:00am 19.0 15.1 13.4 70 3.2 NNW 26 39 14 21 1019.0 1018.7 0.0
 
Date/Time
EST
Temp
°C
App
Temp
°C
Dew
Point
Rel
Hum
%
Delta-T
°C
Wind Press
QNH
hPa
Press
MSL
hPa
Rain
since 9 am
mm
Dir
 
Spd
km/h
Gust
km/h
Spd
kts
Gust
kts
30/11:30pm 19.0 14.8 13.4 70 3.2 NNW 28 37 15 20 1019.3 1019.0 0.0
30/11:00pm 19.1 15.3 13.5 70 3.2 NNW 26 37 14 20 1019.3 1019.0 0.0
30/10:30pm 19.1 16.2 13.9 72 3.0 NNW 22 37 12 20 1019.4 1019.1 0.0
30/10:00pm 19.2 16.7 14.0 72 3.0 NNW 20 33 11 18 1019.4 1019.1 0.0
30/09:30pm 19.2 17.3 14.2 73 2.9 N 17 30 9 16 1019.5 1019.2 0.0
30/09:00pm 19.3 17.8 14.3 73 2.9 N 15 22 8 12 1019.5 1019.2 0.0
30/08:30pm 19.4 17.9 14.2 72 3.0 N 15 24 8 13 1019.6 1019.3 0.0
30/08:00pm 19.6 18.2 14.4 72 3.0 N 15 24 8 13 1019.4 1019.1 0.0
30/07:30pm 20.1 18.5 15.1 73 3.0 N 17 30 9 16 1019.0 1018.7 0.0
30/07:00pm 20.2 17.6 15.0 72 3.1 N 22 37 12 20 1018.7 1018.4 0.0
30/06:30pm 20.3 17.4 15.1 72 3.1 N 24 43 13 23 1018.4 1018.1 0.0
30/06:00pm 20.5 16.4 14.8 70 3.3 N 30 43 16 23 1018.1 1017.8 0.0
30/05:30pm 20.8 16.7 14.9 69 3.5 N 30 41 16 22 1017.9 1017.6 0.0
30/05:00pm 21.5 16.6 14.4 64 4.2 N 33 43 18 23 1017.8 1017.5 0.0
30/04:30pm 22.3 17.6 14.9 63 4.4 N 33 41 18 22 1017.9 1017.6 0.0
30/04:00pm 22.8 17.9 14.4 59 5.0 N 33 39 18 21 1017.8 1017.5 0.0
30/03:30pm 23.2 18.6 14.5 58 5.2 N 32 35 17 19 1017.9 1017.6 0.0
30/03:00pm 23.4 18.8 13.6 54 5.7 N 30 35 16 19 1018.0 1017.7 0.0
30/02:30pm 24.1 21.9 14.8 56 5.6 N 20 30 11 16 1018.4 1018.1 0.0
30/02:00pm 24.2 21.8 14.3 54 5.9 N 20 28 11 15 1018.6 1018.3 0.0
30/01:30pm 24.8 22.5 14.6 53 6.1 N 20 28 11 15 1019.1 1018.8 0.0
30/01:00pm 24.8 23.6 14.0 51 6.4 N 13 24 7 13 1019.4 1019.1 0.0
30/12:30pm 25.2 23.6 14.0 49 6.6 N 15 24 8 13 1019.8 1019.5 0.0
30/12:00pm 24.9 23.6 13.8 50 6.5 N 13 22 7 12 1020.1 1019.8 0.0
30/11:30am 25.1 24.2 13.6 49 6.8 N 11 19 6 10 1020.6 1020.3 0.0
30/11:00am 25.1 24.9 14.6 52 6.3 N 9 15 5 8 1021.0 1020.7 0.0
30/10:30am 23.9 23.2 14.3 55 5.7 N 11 15 6 8 1021.3 1021.1 0.0
30/10:00am 22.9 21.7 13.9 57 5.3 NNW 13 20 7 11 1021.6 1021.4 0.0
30/09:30am 23.3 22.6 14.3 57 5.3 N 11 19 6 10 1021.7 1021.5 0.0
30/09:00am 21.9 20.3 14.0 61 4.6 NNW 15 20 8 11 1021.7 1021.5 0.0
30/08:30am 20.9 18.9 12.8 60 4.6 NNW 15 22 8 12 1021.6 1021.4 0.0
30/08:00am 20.2 18.4 13.2 64 4.0 NNW 15 19 8 10 1021.5 1021.3 0.0
30/07:30am 19.8 18.4 13.3 66 3.7 NNW 13 17 7 9 1021.4 1021.2 0.0
30/07:00am 18.9 17.0 12.9 68 3.4 NNW 15 19 8 10 1021.3 1021.1 0.0
30/06:30am 18.3 16.4 13.0 71 3.0 NNW 15 19 8 10 1020.9 1020.6 0.0
30/06:00am 17.8 15.5 13.1 74 2.6 NW 17 20 9 11 1020.5 1020.2 0.0
30/05:30am 17.5 15.3 13.2 76 2.4 NNW 17 20 9 11 1020.2 1019.9 0.0
30/05:00am 17.4 15.1 12.9 75 2.5 NNW 17 19 9 10 1020.0 1019.7 0.0
30/04:30am 17.5 15.1 12.8 74 2.6 NW 17 19 9 10 1019.8 1019.5 0.0
30/04:00am 17.8 15.5 13.1 74 2.6 NW 17 20 9 11 1019.5 1019.2 0.0
30/03:30am 17.7 15.0 13.0 74 2.6 NW 19 20 10 11 1019.4 1019.1 0.0
30/03:00am 17.7 14.8 12.8 73 2.7 NW 20 24 11 13 1019.3 1019.0 0.0
30/02:30am 17.6 14.6 12.5 72 2.8 NW 20 24 11 13 1019.3 1019.0 0.0
30/02:00am 17.8 14.0 12.5 71 2.9 NW 24 28 13 15 1019.4 1019.1 0.0
30/01:30am 17.9 14.4 12.1 69 3.2 NW 22 28 12 15 1019.5 1019.2 0.0
30/01:00am 18.0 14.8 12.0 68 3.3 NW 20 24 11 13 1019.7 1019.4 0.0
30/12:30am 18.2 14.6 12.0 67 3.4 NW 22 26 12 14 1019.9 1019.6 0.0
30/12:00am 18.3 15.2 12.1 67 3.4 NW 20 24 11 13 1020.0 1019.7 0.0
 
Date/Time
EST
Temp
°C
App
Temp
°C
Dew
Point
Rel
Hum
%
Delta-T
°C
Wind Press
QNH
hPa
Press
MSL
hPa
Rain
since 9 am
mm
Dir
 
Spd
km/h
Gust
km/h
Spd
kts
Gust
kts
29/11:30pm 18.5 15.6 12.3 67 3.5 NW 19 22 10 12 1020.3 1020.0 0.0
29/11:00pm 18.8 17.6 11.6 63 4.0 N 9 13 5 7 1020.4 1020.1 0.0
29/10:30pm 18.9 17.1 11.0 60 4.3 N 11 20 6 11 1020.5 1020.2 0.0
29/10:00pm 18.9 17.3 11.7 63 4.0 N 11 22 6 12 1020.4 1020.1 0.0
29/09:30pm 19.1 17.2 11.9 63 4.0 N 13 24 7 13 1020.3 1020.0 0.0
29/09:00pm 19.1 15.4 11.4 61 4.2 N 22 28 12 15 1020.3 1020.0 0.0
29/08:30pm 19.1 14.9 11.2 60 4.3 NNE 24 28 13 15 1020.3 1020.0 0.0

Other Formats:

Comma delimited format used in spreadsheet applications
http://www.bom.gov.au/fwo/IDQ60801/IDQ60801.94584.axf

JavaScript Object Notation format (JSON) in row-major order
http://www.bom.gov.au/fwo/IDQ60801/IDQ60801.94584.json